createdAt,value
2017-11-22T00:04:58.254Z,9.70
2017-11-22T00:07:25.862Z,9.70
2017-11-22T00:09:53.378Z,9.70
2017-11-22T00:12:20.892Z,9.60
2017-11-22T00:14:48.466Z,9.70
2017-11-22T00:17:16.751Z,9.60
2017-11-22T00:19:45.060Z,9.50
2017-11-22T00:22:12.573Z,9.50
2017-11-22T00:24:40.126Z,9.50
2017-11-22T00:27:07.627Z,9.50
2017-11-22T00:29:35.183Z,9.60
2017-11-22T00:32:02.823Z,9.60
2017-11-22T00:34:30.383Z,9.70
2017-11-22T00:36:57.876Z,9.80
2017-11-22T00:39:25.383Z,9.80
2017-11-22T00:41:52.950Z,9.80
2017-11-22T00:44:20.450Z,9.80
2017-11-22T00:46:47.979Z,9.80
2017-11-22T00:49:15.493Z,9.80
2017-11-22T00:51:43.909Z,9.90
2017-11-22T00:54:11.436Z,9.90
2017-11-22T00:56:38.978Z,9.90
2017-11-22T00:59:06.523Z,9.90
2017-11-22T01:01:34.050Z,9.90
2017-11-22T01:04:01.553Z,10.00
2017-11-22T01:06:29.900Z,10.00
2017-11-22T01:08:57.427Z,10.10
2017-11-22T01:11:24.948Z,10.00
2017-11-22T01:13:52.495Z,9.90
2017-11-22T01:16:20.069Z,9.90
2017-11-22T01:18:47.612Z,10.00
2017-11-22T01:21:15.116Z,10.00
2017-11-22T01:23:42.667Z,10.10
2017-11-22T01:26:10.178Z,10.00
2017-11-22T01:28:37.750Z,10.10
2017-11-22T01:31:05.259Z,10.10
2017-11-22T01:33:33.521Z,10.10
2017-11-22T01:36:01.108Z,10.10
2017-11-22T01:38:28.616Z,10.00
2017-11-22T01:40:56.149Z,10.00
2017-11-22T01:43:23.652Z,10.00
2017-11-22T01:45:51.202Z,10.00
2017-11-22T01:48:18.730Z,10.00
2017-11-22T01:50:46.260Z,10.00
2017-11-22T01:53:14.599Z,9.90
2017-11-22T01:55:42.152Z,9.90
2017-11-22T01:58:09.650Z,9.90
2017-11-22T02:00:48.794Z,9.90
2017-11-22T02:03:18.095Z,9.90
2017-11-22T02:05:45.586Z,9.90
2017-11-22T02:08:13.147Z,9.90
2017-11-22T02:10:40.641Z,9.90
2017-11-22T02:13:08.275Z,9.90
2017-11-22T02:15:35.774Z,9.80
2017-11-22T02:18:03.314Z,9.90
2017-11-22T02:20:30.847Z,9.90
2017-11-22T02:23:16.960Z,9.90
2017-11-22T02:25:44.518Z,9.80
2017-11-22T02:28:12.027Z,9.80
2017-11-22T02:30:39.553Z,9.80
2017-11-22T02:33:07.033Z,9.80
2017-11-22T02:35:34.577Z,9.80
2017-11-22T02:38:02.067Z,9.80
2017-11-22T02:40:29.613Z,9.90
2017-11-22T02:42:57.094Z,9.90
2017-11-22T02:45:24.596Z,9.90
2017-11-22T02:47:52.149Z,9.80
2017-11-22T02:50:19.652Z,9.90
2017-11-22T02:52:47.248Z,9.90
2017-11-22T02:55:14.777Z,9.90
2017-11-22T02:57:42.298Z,9.90
2017-11-22T03:00:09.785Z,9.90
2017-11-22T03:02:37.375Z,9.90
2017-11-22T03:05:04.926Z,9.80
2017-11-22T03:07:32.414Z,9.80
2017-11-22T03:09:59.941Z,9.80
2017-11-22T03:12:27.426Z,9.80
2017-11-22T03:14:54.994Z,9.80
2017-11-22T03:17:22.490Z,9.80
2017-11-22T03:19:50.013Z,9.70
2017-11-22T03:22:18.267Z,9.70
2017-11-22T03:24:45.804Z,9.60
2017-11-22T03:27:13.313Z,9.70
2017-11-22T03:29:40.925Z,9.70
2017-11-22T03:32:08.444Z,9.60
2017-11-22T03:34:35.939Z,9.50
2017-11-22T03:37:03.472Z,9.50
2017-11-22T03:39:31.000Z,9.50
2017-11-22T03:41:58.531Z,9.50
2017-11-22T03:44:26.025Z,9.50
2017-11-22T03:46:53.569Z,9.50
2017-11-22T03:49:21.058Z,9.40
2017-11-22T03:51:54.246Z,9.40
2017-11-22T03:54:21.741Z,9.50
2017-11-22T03:56:49.238Z,9.50
2017-11-22T03:59:17.543Z,9.50
2017-11-22T04:01:45.049Z,9.50
2017-11-22T04:04:12.590Z,9.50
2017-11-22T04:06:40.089Z,9.50
2017-11-22T04:09:07.615Z,9.50
2017-11-22T04:11:35.105Z,9.50
2017-11-22T04:14:02.653Z,9.50
2017-11-22T04:16:30.922Z,9.50
2017-11-22T04:19:04.021Z,9.50
2017-11-22T04:21:31.549Z,9.50
2017-11-22T04:23:59.045Z,9.40
2017-11-22T04:26:26.588Z,9.40
2017-11-22T04:28:54.084Z,9.50
2017-11-22T04:31:21.611Z,9.40
2017-11-22T04:33:49.105Z,9.40
2017-11-22T04:36:16.646Z,9.40
2017-11-22T04:38:44.144Z,9.40
2017-11-22T04:41:11.661Z,9.40
2017-11-22T04:43:39.162Z,9.40
2017-11-22T04:46:07.472Z,9.30
2017-11-22T04:48:34.977Z,9.30
2017-11-22T04:51:02.482Z,9.40
2017-11-22T04:53:30.030Z,9.40
2017-11-22T04:55:57.529Z,9.40
2017-11-22T04:58:25.062Z,9.50
2017-11-22T05:00:52.546Z,9.50
2017-11-22T05:03:20.074Z,9.50
2017-11-22T05:05:47.565Z,9.50
2017-11-22T05:08:15.090Z,9.50
2017-11-22T05:10:43.387Z,9.50
2017-11-22T05:13:11.698Z,9.50
2017-11-22T05:15:39.185Z,9.50
2017-11-22T05:18:06.712Z,9.50
2017-11-22T05:20:35.024Z,9.50
2017-11-22T05:23:02.518Z,9.40
2017-11-22T05:25:30.057Z,9.50
2017-11-22T05:27:58.325Z,9.50
2017-11-22T05:30:26.594Z,9.50
2017-11-22T05:32:54.135Z,9.50
2017-11-22T05:35:21.636Z,9.40
2017-11-22T05:37:49.175Z,9.40
2017-11-22T05:40:16.669Z,9.40
2017-11-22T05:42:44.197Z,9.40
2017-11-22T05:45:11.694Z,9.40
2017-11-22T05:47:39.239Z,9.40
2017-11-22T05:50:06.741Z,9.40
2017-11-22T05:52:34.282Z,9.50
2017-11-22T05:55:01.807Z,9.50
2017-11-22T05:57:29.306Z,9.50
2017-11-22T05:59:56.905Z,9.50
2017-11-22T06:02:24.497Z,9.40
2017-11-22T06:04:52.038Z,9.50
2017-11-22T06:07:20.327Z,9.80
2017-11-22T06:09:47.857Z,9.70
2017-11-22T06:12:15.367Z,9.70
2017-11-22T06:14:43.681Z,9.80
2017-11-22T06:17:11.214Z,9.80
2017-11-22T06:19:39.481Z,9.80
2017-11-22T06:22:07.016Z,9.80
2017-11-22T06:24:34.528Z,9.90
2017-11-22T06:27:02.078Z,9.90
2017-11-22T06:29:29.582Z,9.90
2017-11-22T06:31:57.085Z,9.90
2017-11-22T06:34:25.445Z,9.80
2017-11-22T06:36:52.967Z,9.80
2017-11-22T06:39:24.416Z,9.80
2017-11-22T06:41:51.917Z,9.70
2017-11-22T06:44:19.451Z,9.70
2017-11-22T06:46:47.714Z,9.60
2017-11-22T06:49:15.273Z,9.50
2017-11-22T06:51:42.773Z,9.50
2017-11-22T06:54:10.273Z,9.40
2017-11-22T06:56:37.800Z,9.20
2017-11-22T06:59:05.316Z,9.10
2017-11-22T07:01:32.889Z,9.00
2017-11-22T07:04:00.377Z,8.90
2017-11-22T07:06:27.916Z,8.90
2017-11-22T07:08:56.165Z,8.70
2017-11-22T07:11:23.662Z,8.70
2017-11-22T07:13:51.957Z,8.60
2017-11-22T07:16:25.778Z,8.70
2017-11-22T07:18:53.323Z,8.70
2017-11-22T07:21:20.809Z,8.80
2017-11-22T07:23:48.345Z,8.80
2017-11-22T07:26:15.842Z,8.80
2017-11-22T07:28:43.386Z,8.80
2017-11-22T07:31:10.868Z,8.90
2017-11-22T07:33:38.402Z,8.90
2017-11-22T07:36:11.545Z,9.00
2017-11-22T07:38:39.102Z,9.00
2017-11-22T07:41:06.589Z,9.00
2017-11-22T07:43:34.104Z,9.10
2017-11-22T07:46:01.671Z,9.10
2017-11-22T07:48:29.178Z,9.20
2017-11-22T07:50:58.674Z,9.30
2017-11-22T07:53:26.219Z,9.40
2017-11-22T07:55:54.306Z,9.50
2017-11-22T07:58:21.830Z,9.60
2017-11-22T08:00:49.436Z,9.70
2017-11-22T08:03:21.807Z,9.80
2017-11-22T08:05:49.341Z,9.90
2017-11-22T08:08:16.925Z,10.10
2017-11-22T08:10:44.419Z,10.20
2017-11-22T08:13:11.949Z,10.40
2017-11-22T08:15:39.454Z,10.50
2017-11-22T08:18:07.000Z,10.50
2017-11-22T08:20:34.494Z,10.70
2017-11-22T08:23:01.985Z,11.00
2017-11-22T08:25:29.542Z,11.60
2017-11-22T08:27:57.033Z,12.00
2017-11-22T08:30:24.603Z,12.60
2017-11-22T08:32:52.105Z,12.90
2017-11-22T08:35:19.684Z,13.00
2017-11-22T08:37:47.180Z,13.10
2017-11-22T08:40:14.728Z,13.20
2017-11-22T08:42:42.990Z,13.70
2017-11-22T08:45:10.500Z,13.70
2017-11-22T08:47:38.039Z,13.70
2017-11-22T08:50:05.545Z,14.00
2017-11-22T08:52:33.075Z,14.40
2017-11-22T08:55:06.133Z,14.90
2017-11-22T08:57:39.341Z,15.30
2017-11-22T09:00:12.382Z,15.40
2017-11-22T09:02:54.510Z,15.50
2017-11-22T09:05:22.057Z,15.80
2017-11-22T09:07:49.711Z,15.60
2017-11-22T09:10:17.208Z,15.70
2017-11-22T09:12:59.190Z,15.20
2017-11-22T09:15:26.678Z,15.20
2017-11-22T09:17:56.109Z,15.00
2017-11-22T09:20:23.664Z,14.80
2017-11-22T09:22:51.218Z,14.80
2017-11-22T09:25:21.696Z,15.20
2017-11-22T09:27:54.790Z,15.90
2017-11-22T09:30:22.329Z,16.60
2017-11-22T09:32:51.798Z,17.30
2017-11-22T09:35:19.336Z,17.50
2017-11-22T09:37:46.833Z,17.30
2017-11-22T09:40:14.376Z,16.90
2017-11-22T09:42:41.873Z,16.90
2017-11-22T09:45:09.395Z,16.90
2017-11-22T09:47:36.953Z,16.40
2017-11-22T09:50:04.459Z,16.30
2017-11-22T09:52:31.990Z,16.70
2017-11-22T09:55:00.267Z,17.10
2017-11-22T09:57:27.791Z,17.10
2017-11-22T09:59:55.304Z,17.00
2017-11-22T10:02:22.846Z,16.90
2017-11-22T10:04:50.345Z,17.10
2017-11-22T10:07:17.883Z,17.20
2017-11-22T10:09:45.378Z,17.40
2017-11-22T10:12:12.869Z,17.30
2017-11-22T10:14:40.400Z,16.80
2017-11-22T10:17:12.689Z,16.50
2017-11-22T10:19:44.141Z,16.30
2017-11-22T10:22:11.637Z,16.30
2017-11-22T10:24:43.955Z,16.40
2017-11-22T10:27:17.773Z,16.40
2017-11-22T10:29:46.129Z,16.30
2017-11-22T10:32:19.162Z,16.00
2017-11-22T10:34:46.693Z,15.90
2017-11-22T10:37:14.221Z,16.10
2017-11-22T10:39:41.711Z,16.20
2017-11-22T10:42:09.253Z,16.50
2017-11-22T10:44:37.511Z,16.60
2017-11-22T10:47:05.063Z,16.60
2017-11-22T10:49:32.569Z,16.70
2017-11-22T10:52:00.112Z,16.90
2017-11-22T10:54:27.596Z,16.90
2017-11-22T10:56:55.132Z,17.20
2017-11-22T10:59:22.659Z,17.30
2017-11-22T11:01:50.149Z,17.00
2017-11-22T11:04:17.683Z,16.40
2017-11-22T11:06:45.173Z,15.60
2017-11-22T11:09:13.472Z,14.50
2017-11-22T11:11:41.749Z,14.20
2017-11-22T11:14:09.319Z,14.20
2017-11-22T11:16:36.796Z,14.10
2017-11-22T11:19:04.394Z,14.20
2017-11-22T11:21:31.889Z,14.20
2017-11-22T11:23:59.389Z,14.20
2017-11-22T11:26:26.909Z,14.10
2017-11-22T11:28:54.417Z,14.20
2017-11-22T11:31:21.957Z,14.10
2017-11-22T11:33:49.458Z,14.10
2017-11-22T11:36:28.773Z,14.10
2017-11-22T11:38:56.265Z,14.20
2017-11-22T11:41:23.799Z,14.20
2017-11-22T11:43:52.049Z,14.20
2017-11-22T11:46:19.588Z,14.10
2017-11-22T11:48:47.082Z,14.10
2017-11-22T11:51:14.586Z,14.00
2017-11-22T11:53:42.114Z,14.00
2017-11-22T11:56:09.610Z,14.00
2017-11-22T11:58:37.134Z,14.00
2017-11-22T12:01:04.625Z,13.90
2017-11-22T12:03:32.153Z,13.80
2017-11-22T12:05:59.647Z,13.70
2017-11-22T12:08:27.170Z,13.70
2017-11-22T12:10:54.666Z,13.70
2017-11-22T12:13:22.962Z,13.70
2017-11-22T12:15:51.219Z,13.60
2017-11-22T12:18:18.729Z,13.60
2017-11-22T12:20:51.940Z,13.50
2017-11-22T12:23:24.355Z,13.50
2017-11-22T12:25:51.907Z,13.50
2017-11-22T12:28:19.404Z,13.50
2017-11-22T12:30:46.994Z,13.50
2017-11-22T12:33:14.498Z,13.40
2017-11-22T12:35:42.034Z,13.40
2017-11-22T12:38:09.599Z,13.40
2017-11-22T12:40:37.109Z,13.40
2017-11-22T12:43:04.720Z,13.50
2017-11-22T12:45:32.230Z,13.50
2017-11-22T12:47:59.798Z,13.50
2017-11-22T12:50:27.311Z,13.50
2017-11-22T12:52:55.583Z,13.40
2017-11-22T12:55:23.900Z,13.50
2017-11-22T12:57:53.320Z,13.40
2017-11-22T13:00:20.866Z,13.50
2017-11-22T13:02:49.133Z,13.50
2017-11-22T13:05:16.688Z,13.50
2017-11-22T13:07:44.209Z,13.50
2017-11-22T13:10:18.041Z,13.50
2017-11-22T13:12:45.537Z,13.50
2017-11-22T13:15:13.042Z,13.50
2017-11-22T13:17:41.389Z,13.50
2017-11-22T13:20:08.889Z,13.40
2017-11-22T13:22:36.418Z,13.40
2017-11-22T13:25:04.010Z,13.30
2017-11-22T13:27:31.582Z,13.30
2017-11-22T13:29:59.089Z,13.30
2017-11-22T13:32:26.590Z,13.30
2017-11-22T13:34:54.145Z,13.20
2017-11-22T13:37:21.672Z,13.20
2017-11-22T13:39:49.226Z,13.10
2017-11-22T13:42:16.714Z,13.10
2017-11-22T13:44:44.270Z,13.10
2017-11-22T13:47:11.759Z,13.10
2017-11-22T13:49:39.312Z,13.10
2017-11-22T13:52:06.809Z,13.10
2017-11-22T13:54:34.317Z,13.20
2017-11-22T13:57:01.839Z,13.10
2017-11-22T13:59:29.337Z,13.00
2017-11-22T14:01:56.877Z,13.00
2017-11-22T14:04:24.381Z,13.00
2017-11-22T14:06:51.917Z,12.90
2017-11-22T14:09:19.468Z,12.90
2017-11-22T14:11:47.772Z,12.70
2017-11-22T14:14:15.299Z,12.70
2017-11-22T14:16:42.852Z,12.70
2017-11-22T14:19:10.370Z,12.50
2017-11-22T14:21:37.869Z,12.50
2017-11-22T14:24:05.429Z,12.40
2017-11-22T14:26:32.930Z,12.20
2017-11-22T14:29:00.505Z,12.10
2017-11-22T14:31:28.065Z,12.00
2017-11-22T14:33:55.981Z,12.10
2017-11-22T14:36:23.562Z,12.00
2017-11-22T14:38:51.194Z,12.00
2017-11-22T14:41:18.782Z,11.90
2017-11-22T14:43:46.288Z,11.80
2017-11-22T14:46:13.828Z,11.80
2017-11-22T14:48:41.521Z,11.80
2017-11-22T14:51:09.075Z,11.70
2017-11-22T14:53:36.582Z,11.70
2017-11-22T14:56:04.083Z,11.70
2017-11-22T14:58:31.677Z,11.70
2017-11-22T15:00:59.165Z,11.70
2017-11-22T15:03:26.709Z,11.70
2017-11-22T15:05:54.210Z,11.60
2017-11-22T15:08:21.848Z,11.50
2017-11-22T15:10:49.386Z,11.40
2017-11-22T15:13:16.891Z,11.20
2017-11-22T15:15:44.426Z,11.10
2017-11-22T15:18:11.990Z,11.00
2017-11-22T15:20:39.528Z,11.00
2017-11-22T15:23:07.029Z,10.80
2017-11-22T15:25:34.601Z,10.70
2017-11-22T15:28:02.888Z,10.70
2017-11-22T15:30:30.395Z,10.70
2017-11-22T15:32:57.952Z,10.70
2017-11-22T15:35:25.487Z,10.70
2017-11-22T15:37:53.057Z,10.60
2017-11-22T15:40:20.569Z,10.70
2017-11-22T15:42:48.893Z,10.70
2017-11-22T15:45:17.263Z,10.70
2017-11-22T15:47:45.586Z,10.80
2017-11-22T15:50:13.089Z,10.70
2017-11-22T15:52:40.692Z,10.80
2017-11-22T15:55:08.994Z,10.70
2017-11-22T15:57:37.266Z,10.60
2017-11-22T16:00:05.614Z,10.50
2017-11-22T16:02:33.163Z,10.40
2017-11-22T16:05:00.717Z,10.40
2017-11-22T16:07:28.272Z,10.30
2017-11-22T16:09:55.898Z,10.30
2017-11-22T16:12:23.425Z,10.30
2017-11-22T16:14:51.721Z,10.00
2017-11-22T16:17:19.985Z,10.00
2017-11-22T16:19:47.531Z,10.00
2017-11-22T16:22:15.038Z,10.10
2017-11-22T16:24:42.547Z,10.00
2017-11-22T16:27:10.109Z,9.90
2017-11-22T16:29:37.605Z,9.90
2017-11-22T16:32:05.145Z,9.80
2017-11-22T16:34:33.406Z,9.50
2017-11-22T16:37:00.945Z,9.40
2017-11-22T16:39:28.439Z,9.60
2017-11-22T16:41:55.978Z,9.60
2017-11-22T16:44:23.491Z,9.50
2017-11-22T16:46:50.999Z,9.50
2017-11-22T16:49:18.538Z,9.60
2017-11-22T16:51:46.045Z,9.50
2017-11-22T16:54:13.649Z,9.50
2017-11-22T16:56:41.232Z,9.50
2017-11-22T16:59:08.753Z,9.50
2017-11-22T17:01:37.056Z,9.40
2017-11-22T17:04:04.614Z,9.40
2017-11-22T17:06:32.916Z,9.40
2017-11-22T17:09:00.467Z,9.40
2017-11-22T17:11:28.742Z,9.30
2017-11-22T17:13:56.256Z,9.20
2017-11-22T17:16:23.862Z,9.40
2017-11-22T17:18:51.348Z,9.40
2017-11-22T17:21:18.925Z,9.20
2017-11-22T17:23:46.416Z,9.10
2017-11-22T17:26:14.727Z,9.20
2017-11-22T17:28:42.236Z,9.20
2017-11-22T17:31:09.786Z,9.20
2017-11-22T17:33:37.314Z,9.30
2017-11-22T17:36:04.819Z,9.30
2017-11-22T17:38:32.346Z,9.20
2017-11-22T17:40:59.847Z,9.20
2017-11-22T17:43:28.170Z,9.00
2017-11-22T17:45:55.661Z,9.00
2017-11-22T17:48:23.230Z,9.00
2017-11-22T17:50:50.738Z,8.90
2017-11-22T17:53:18.270Z,8.90
2017-11-22T17:55:45.776Z,8.90
2017-11-22T17:58:13.310Z,9.00
2017-11-22T18:00:40.870Z,9.10
2017-11-22T18:03:08.368Z,9.20
2017-11-22T18:05:35.941Z,9.30
2017-11-22T18:08:03.428Z,9.30
2017-11-22T18:10:31.755Z,9.30
2017-11-22T18:12:59.269Z,9.20
2017-11-22T18:15:26.827Z,9.20
2017-11-22T18:17:54.312Z,9.10
2017-11-22T18:20:21.863Z,9.10
2017-11-22T18:22:49.440Z,9.20
2017-11-22T18:25:16.955Z,9.30
2017-11-22T18:27:45.243Z,9.20
2017-11-22T18:30:13.507Z,9.20
2017-11-22T18:32:41.022Z,9.20
2017-11-22T18:35:09.278Z,9.30
2017-11-22T18:37:36.981Z,9.30
2017-11-22T18:40:05.264Z,9.30
2017-11-22T18:42:32.770Z,9.20
2017-11-22T18:45:00.323Z,9.20
2017-11-22T18:47:28.574Z,9.40
2017-11-22T18:49:56.136Z,9.40
2017-11-22T18:52:23.981Z,9.50
2017-11-22T18:54:51.539Z,9.50
2017-11-22T18:57:19.052Z,9.60
2017-11-22T18:59:47.393Z,9.50
2017-11-22T19:02:15.657Z,9.40
2017-11-22T19:04:43.150Z,9.40
2017-11-22T19:07:11.465Z,9.30
2017-11-22T19:09:38.966Z,9.30
2017-11-22T19:12:06.503Z,9.30
2017-11-22T19:14:34.003Z,9.40
2017-11-22T19:17:01.545Z,9.50
2017-11-22T19:19:29.057Z,9.40
2017-11-22T19:21:56.606Z,9.40
2017-11-22T19:24:24.132Z,9.40
2017-11-22T19:26:51.693Z,9.40
2017-11-22T19:29:25.855Z,9.40
2017-11-22T19:31:53.418Z,9.50
2017-11-22T19:34:20.943Z,9.50
2017-11-22T19:36:48.443Z,9.40
2017-11-22T19:39:16.746Z,9.30
2017-11-22T19:41:44.232Z,9.30
2017-11-22T19:44:11.762Z,9.30
2017-11-22T19:46:39.265Z,9.30
2017-11-22T19:49:06.786Z,9.20
2017-11-22T19:51:34.309Z,9.20
2017-11-22T19:54:01.853Z,9.20
2017-11-22T19:56:29.350Z,9.20
2017-11-22T19:58:56.874Z,9.20
2017-11-22T20:01:24.414Z,9.10
2017-11-22T20:03:51.920Z,9.10
2017-11-22T20:06:19.465Z,9.10
2017-11-22T20:08:46.958Z,9.10
2017-11-22T20:11:14.494Z,9.10
2017-11-22T20:13:42.000Z,9.00
2017-11-22T20:16:09.566Z,9.00
2017-11-22T20:18:37.074Z,9.00
2017-11-22T20:21:04.607Z,9.00
2017-11-22T20:23:32.093Z,8.90
2017-11-22T20:25:59.628Z,8.90
2017-11-22T20:28:27.160Z,9.00
2017-11-22T20:30:54.663Z,9.00
2017-11-22T20:33:22.225Z,9.00
2017-11-22T20:35:50.511Z,8.90
2017-11-22T20:38:18.045Z,8.90
2017-11-22T20:40:45.533Z,8.80
2017-11-22T20:43:13.115Z,8.70
2017-11-22T20:45:41.377Z,8.40
2017-11-22T20:48:09.080Z,8.40
2017-11-22T20:50:36.592Z,8.30
2017-11-22T20:53:04.598Z,8.40
2017-11-22T20:55:32.167Z,8.50
2017-11-22T20:57:59.767Z,8.70
2017-11-22T21:00:28.012Z,8.80
2017-11-22T21:02:55.693Z,8.90
2017-11-22T21:05:23.385Z,8.80
2017-11-22T21:07:50.884Z,8.70
2017-11-22T21:10:18.586Z,8.70
2017-11-22T21:12:46.115Z,8.80
2017-11-22T21:15:13.774Z,8.80
2017-11-22T21:17:47.502Z,8.80
2017-11-22T21:20:15.051Z,8.60
2017-11-22T21:22:42.541Z,8.60
2017-11-22T21:25:10.074Z,8.60
2017-11-22T21:27:37.824Z,8.60
2017-11-22T21:30:05.315Z,8.50
2017-11-22T21:32:32.865Z,8.40
2017-11-22T21:35:00.365Z,8.30
2017-11-22T21:37:27.896Z,8.30
2017-11-22T21:39:55.442Z,8.40
2017-11-22T21:42:22.972Z,8.50
2017-11-22T21:44:51.237Z,8.60
2017-11-22T21:47:18.766Z,8.50
2017-11-22T21:49:46.273Z,8.60
2017-11-22T21:52:13.828Z,8.60
2017-11-22T21:54:41.347Z,8.50
2017-11-22T21:57:09.619Z,8.60
2017-11-22T21:59:37.911Z,8.50
2017-11-22T22:02:05.423Z,8.50
2017-11-22T22:04:33.558Z,8.50
2017-11-22T22:07:01.048Z,8.50
2017-11-22T22:09:29.298Z,8.30
2017-11-22T22:11:56.814Z,8.30
2017-11-22T22:14:24.329Z,8.30
2017-11-22T22:16:51.856Z,8.40
2017-11-22T22:19:19.464Z,8.30
2017-11-22T22:21:47.621Z,8.30
2017-11-22T22:24:15.326Z,8.40
2017-11-22T22:26:43.261Z,8.40
2017-11-22T22:29:10.780Z,8.20
2017-11-22T22:31:38.275Z,8.20
2017-11-22T22:34:06.515Z,8.10
2017-11-22T22:36:34.022Z,8.00
2017-11-22T22:39:01.569Z,8.00
2017-11-22T22:41:29.069Z,8.20
2017-11-22T22:43:56.618Z,8.20
2017-11-22T22:46:24.148Z,8.20
2017-11-22T22:48:51.645Z,8.10
2017-11-22T22:51:19.177Z,8.10
2017-11-22T22:53:46.677Z,8.20
2017-11-22T22:56:14.979Z,8.20
2017-11-22T22:58:42.472Z,8.20
2017-11-22T23:01:10.083Z,8.30
2017-11-22T23:03:37.618Z,8.60
2017-11-22T23:06:05.147Z,8.70
2017-11-22T23:08:32.665Z,8.70
2017-11-22T23:11:00.221Z,8.70
2017-11-22T23:13:28.380Z,8.60
2017-11-22T23:15:56.924Z,8.40
2017-11-22T23:18:24.607Z,8.30
2017-11-22T23:20:52.117Z,8.30
2017-11-22T23:23:20.002Z,8.30
2017-11-22T23:25:48.258Z,8.40
2017-11-22T23:28:16.029Z,8.40
2017-11-22T23:30:43.554Z,8.50
2017-11-22T23:33:11.085Z,8.40
2017-11-22T23:35:38.586Z,8.40
2017-11-22T23:38:06.078Z,8.40
2017-11-22T23:40:33.598Z,8.30
2017-11-22T23:43:01.829Z,8.40
2017-11-22T23:45:29.365Z,8.30
2017-11-22T23:47:56.853Z,8.20
2017-11-22T23:50:25.160Z,8.30
2017-11-22T23:52:52.682Z,8.30
2017-11-22T23:55:20.176Z,8.30
2017-11-22T23:57:47.753Z,8.50
